US_Partners_Report 1

pictures.dealer.com

US_Partners_Report 1

12/7/2010 11/8/2010 XB075 Jervis B. Webb Company 34375 W. 12 Mile Rd. Farmington Hills MI 48331 US Sunny Lapadat HR Assistant (248) 553-1000 slapadat@jerviswebb.com

5/20/2011 11/8/2010 ZZ556 RouteOne LLC 31500 Northwestern Hwy Ste 200 Farmington Hills MI 48334 US Tonya Stankov Sr. HR Supervisor 2488627054 2488627000 tstankov@routeone.com

11/7/2010 11/8/2010 ZZ447 Kramer Air Tool 23149 Commerce Drive Farmington Hills MI 48335 US

11/7/2010 11/8/2010 ZZ495 Minacs 34115 West 12 Mile Rd Farmington Hills MI 48331 US

11/7/2010 11/8/2010 ZZ500 MORPACE International, Inc. 31700 Middlebelt Rd Farmington Hills MI 48334 US

11/7/2010 11/8/2010 VL186 Cinetic Automation

RIETER AUTOMOTIVE SYSTEMS NORTH

23400 Halsted Road Farmington Hills MI 48335 US

11/7/2010 11/8/2010 ZZ551 AMERICA 38555 Hills Tech Drive FARMINGTON HILLS MI 48331 US

11/7/2010 11/8/2010 WT960 Akebono Brake Eng Center 34385 W. Twelve Mile Road Farmington Hills MI 48331 US

11/7/2010 11/8/2010 ZZ292 CalsonicKansei 27000 Hills Tech Crt Farmington Hills MI 48331 US

11/7/2010 11/8/2010 WW348 Wilson Group, Inc. 24565 Hallwood Court Farmington Hills MI 48335 US

11/7/2010 11/8/2010 ZZ317 Covansys 32605 West 12 Mile Road, Suite 250 Farmington Hills MI 48334 US

11/7/2010 11/8/2010 ZZ640 Zatkoff Seals & Packings 23230 Industrial Park Drive Farmington Hills MI 48335 US

11/7/2010 11/8/2010 ZZ390 Graphik Concepts Inc 23555 Research Blvd. Farmington Hills MI 48335 US

11/7/2010 11/8/2010 ZZ276 Atlas Technologies 201 South Alloy Drive Fenton MI 48430 US

11/7/2010 11/8/2010 ZZ318 Creative Foam Corporation 300 North Alloy Drive Fenton MI 48430 US

11/7/2010 11/8/2010 VS957 Gage Products Company 821 Wanda Ave Ferndale MI 48220 US

11/7/2010 11/8/2010 AD997 McLaren Health 401 South Ballenger Flint MI 48532 US

11/7/2010 11/8/2010 ZZ443 Kettering University Staff 1700 West Third Avenue Flint MI 48504 US

11/7/2010 11/8/2010 ZZ465 Manufacturers Equipment & Supply Co. 2401 Lapeer Road FLINT MI 48503 US

11/7/2010 11/8/2010 ZZ550 Richfield Industries 3020 Airpark Drive South Flint MI 48507 US

11/7/2010 11/8/2010 QC868 Hurley Medical Center One Hurley Plaza, Room 618 SON Flint MI 48503 US

11/7/2010 11/8/2010 XI292 Frankenmuth Mutual Insurance Company 1 Mutual Avenue Frankenmuth MI 48787 US

11/7/2010 11/8/2010 VX616 Jacobs Industries, Inc. 34675 Commerce Fraser MI 48026 US

11/7/2010 11/8/2010 WC229 Venture Industries P.O. Box 278,34501 Harper Fraser MI 48026 US

11/7/2010 11/8/2010 AD998 Mehra Tube, Inc. 10168 North Holly Road Grand Blanc MI 48439 US

11/7/2010 11/8/2010 ZZ380 Genesys Hospital One Genesys Parkway Grand Blanc MI 48439 US

11/7/2010 11/8/2010 ZZ275 ASIMCO Technologies 11118 US 31, Building A Grand Haven MI 49417 US

11/7/2010 11/8/2010 ZZ277 Automatic Spring Products Corporation 803 Taylor Avenue Grand Haven MI 49417 US

11/7/2010 11/8/2010 ZZ568 Shape Corporation 1900 Hayes Street Grand Haven MI 49417 US

11/7/2010 11/8/2010 ZZ389 Grand Haven Stamped Products 1250 South Beechtree Street Grand Haven MI 49417 US

2/25/2011 11/8/2010 XG484 Gordon Food Service 420 50th Street SW Grand Rapids MI 49548 US Chad Roberts Fleet Manager 616-530-7000 616-717-7982 chad.roberts@gfs.com

12/6/2010 11/8/2010 ZZ290 Burke Porter Machinery Company 730 Plymouth N.E. Grand Rapids MI 49505 US Gretchen Overbeek Human Resource Mngr 616-234-1200 616-234-1303 gretchen.overbeek@bepco.com

12/21/2010 11/8/2010 VH565 Lacks Enterprises 5460 Cascade Road SE Grand Rapids MI 49546 US Jenn Groendyke PR and Communication Specialist 6169567336 j.groendyke@lacksenterprises.com

4/8/2011 11/8/2010 ZZ554 RoMan Manufacturing, Inc. 861 47th St SW Grand Rapids MI 49509 US Melissa Iden Human Resources 616-530-8641 616-940-5707 miden@romanmfg.com

11/7/2010 11/8/2010 WJ669 Konica Minolta Graphic Imaging USA, Inc. 5800 Foremost Drive, Suite 310 Grand Rapids MI 49546 US

11/7/2010 11/8/2010 NI226 Universal Forest Products, Inc 2801 East Beltline Avenue, NE Grand Rapids MI 49525 US

11/7/2010 11/8/2010 VJ526 Spartan Stores, Inc. 850 76th Street S.W. Grand Rapids MI 49518 US

11/7/2010 11/8/2010 NN206 Paulstra CRC 460 Fuller N.E. Grand Rapids MI 49503 US

11/7/2010 11/8/2010 ZZ253 ADAC Automotive Inc. 5920 Tahoe Drive SE, PO Box 888375 Grand Rapids MI 49588-8375 US

11/7/2010 11/8/2010 ZZ255 Agility Health 560 5th St. NW Suite 404 Grand Rapids MI 49504 US

11/7/2010 11/8/2010 ZZ537 Priority Health 1231 East Beltline NE, MS2355 GRAND RAPIDS MI 49525 US

11/7/2010 11/8/2010 ZZ311 Compass Automotive Group 3559 KRAFT AVE SE GRAND RAPIDS MI 49512 US

11/7/2010 11/8/2010 ZZ312 Concept Industries 4950 Kraft Southeast Grand Rapids MI 49512 US

11/7/2010 11/8/2010 ZZ617 US Industries -Leon Plastics 4901 Clay Ave., P.O. Box 350 Grand Rapids MI 49501-0350 US

11/7/2010 11/8/2010 ZA712 Hoekstra Truck Equipment 260 36th Street Southeast Grand Rapids MI 49548 US

11/7/2010 11/8/2010 ZZ370 Frost Incorporated 2020 Bristol NW GRAND RAPIDS MI 49504 US

11/7/2010 11/8/2010 ZZ372 Fuel Systems Inc. 1950 Waldrof NW Ste A Grand Rapids MI 49544 US

11/7/2010 11/8/2010 ZZ393 H. S. Die & Engineering 0-215 Lake Michigan Drive Grand Rapids MI 49534 US

11/7/2010 11/8/2010 XJ270 Steelcase, Inc. 901 44th St., S.E. Grand Rapids MI 49508 US

11/7/2010 11/8/2010 ZZ361 Federal Broach & Machine Company, LLC. 1961 Sullivan Drive Harrison MI 48625 US

11/7/2010 11/8/2010 ZZ342 Dynamic Technology, Inc. 1200 North Old U.S. 23 Hartland MI 48353-0559 US

12/21/2010 11/8/2010 ZZ402 Helm Incorporated 14310 Hamilton Avenue Highland Park MI 48203 US Stacy Brewster Payroll and Benefits Admin 313 865-5000 313 733-3428 sbrewster@helminc.com

11/7/2010 11/8/2010 ZZ289 Budco 13700 Oakland Avenue Highland Park MI 48203 US

11/7/2010 11/8/2010 ZZ409 Hillsdale Community Health Center 168 South Howell Street Hillsdale MI 49242 US

11/7/2010 11/8/2010 ZZ410 Holland Community Hospital 602 Michigan Avenue Holland MI 49423 US

11/7/2010 11/8/2010 ZZ609 Trans-Matic Manufacturing Company, Inc. 300 East 48th Street Holland MI 49423 US

11/7/2010 11/8/2010 ZZ450 Laird Technologies 4360 Baldwin Rd Holly MI 48442 US

11/7/2010 11/8/2010 ZZ488 Michigan Technological Univ Faculty 1400 Townsend Houghton MI 49931 US

11/7/2010 11/8/2010 ZZ489 MidMichigan Health Services 9249 West Lake City Road Houghton Lake MI 48629 US

11/7/2010 11/8/2010 ZZ483 Michigan Rod Products 1326 Grand Oaks Drive Howell MI 48843 US

11/7/2010 11/8/2010 ZZ293 Carcoustics USA, Inc. 1400 Durant Dr HOWELL MI 48843 US

11/7/2010 11/8/2010 WD456 Ogihara America Corporation 1480 W. McPherson Park Drive Howell MI 48843 US

11/7/2010 11/8/2010 ZZ457 M and S Manufacturing Company 550 East Main Street Hudson MI 49247 US

11/7/2010 11/8/2010 NC091 Meridian Automotive Systems 14 N Beardsley Ionia MI 48846 US

11/7/2010 11/8/2010 ZZ288 Brown Corporation of America 401 South Steele Street Ionia MI 48846 US

11/7/2010 11/8/2010 ZZ459 Macsteel One Jackson Square #500 Jackson MI 49201 US

11/7/2010 11/8/2010 XX030 Alro Steel Corp 3100 East High Street Jackson MI 49204 US

11/7/2010 11/8/2010 ZZ305 CMS Energy - Consumers Energy 1 Energy Plaza Jackson MI 49201 US

11/7/2010 11/8/2010 ZZ365 Foote Hospital 1 Jackson Square, 9th Floor Jackson MI 49201 US

11/7/2010 11/8/2010 WG680 Dawn Food Products 3333 Sargent Rd. Jackson MI 49201 US

11/7/2010 11/8/2010 ZZ345 EaglePicher Hillsdale Automotive 651 Beck Street JONESVILLE MI 49250 US

11/7/2010 11/8/2010 ZZ424 Inter-Source Recovery 1470 S 8th Street Kalamazoo MI 49009 US

11/7/2010 11/8/2010 ZZ286 Borgess Health 1521 Gull Road Kalamazoo MI 49048 US

11/7/2010 11/8/2010 ZZ580 Stryker Corporation 2725 Fairfield Road Kalamazoo MI 49002 US

11/7/2010 11/8/2010 ZZ302 ChoiceOne P.O. 248 450 West Muskegon Kent City MI 49330 US

11/7/2010 11/8/2010 ZZ421 Industrial Metal Products Corp. 3417 W St Joseph Street Lansing MI 48917 US

11/7/2010 11/8/2010 XW900 Auto-Owners Insurance Co 6101 Anacapri Blvd LANSING MI 48917 US

11/7/2010 11/8/2010 ZZ573 Sparrow Health System 1215 East Michigan Avenue Lansing MI 48912 US

11/7/2010 11/8/2010 ZZ503 Motor Wheel 37770 Amrhein LIVONIA MI 48150 US

11/7/2010 11/8/2010 VL003 Roush Industries, Inc. 12447 Levan Livonia MI 48150 US

11/7/2010 11/8/2010 VL269 General Fasteners Co. 37584 Amrhein Road, Suite 150 Livonia MI 48150 US

11/7/2010 11/8/2010 XT015 Computer Methods Corporation 13740 Merriman Road Livonia MI 48150 US

11/7/2010 11/8/2010 ZZ524 Oxbow Machine Products, Inc. 12777 Merriman Road Livonia MI 48150 US

11/7/2010 11/8/2010 NQ559 Aristeo Construction Company 12811 Farmington Road Livonia MI 48150 US

11/7/2010 11/8/2010 ZZ256 Air Gage Company 12170 Globe Road Livonia MI 48150 US

11/7/2010 11/8/2010 ZZ263 Alpha Stamping Co. 33375 Glendale Livonia MI 48150 US

11/7/2010 11/8/2010 ZZ540 PSI Repair Services, Inc. 11878 Hubbard Livonia MI 48150 US

11/7/2010 11/8/2010 ZZ557 RS Electronics 34443 Schoolcraft Livonia MI 48150 US

11/7/2010 11/8/2010 ZZ291 C & B Machinery 12001 Globe Street Livonia MI 48150 US

11/7/2010 11/8/2010 ZZ610 TRW Automotive 12001 Tech Center Dr. Livonia MI 48150 US

11/7/2010 11/8/2010 ZZ625 Venus Controls 30105 West 8 Mile Road Livonia MI 48152 US

11/7/2010 11/8/2010 ZZ352 EPI Printers 13305 Wayne Rd Livonia MI 48150 US

11/7/2010 11/8/2010 ZZ356 EWI Worldwide 13211 Merriman Road Livonia MI 48150 US

11/7/2010 11/8/2010 WF807 Komatsu America Industries 14095 Farmington Road Livonia MI 48154 US

11/7/2010 11/8/2010 ZZ397 Harrison Piping 38777 Schoolcraft Road Livonia MI 48150 US

More magazines by this user
Similar magazines